sensor_id;sensor_type;location;lat;lon;timestamp;P1;durP1;ratioP1;P2;durP2;ratioP2
10661;SDS011;5379;51.034;7.006;2024-03-25T00:01:46;3.53;;;2.10;;
10661;SDS011;5379;51.034;7.006;2024-03-25T00:04:14;7.90;;;2.80;;
10661;SDS011;5379;51.034;7.006;2024-03-25T00:06:41;7.07;;;3.00;;
10661;SDS011;5379;51.034;7.006;2024-03-25T00:09:07;4.10;;;1.73;;
10661;SDS011;5379;51.034;7.006;2024-03-25T00:11:39;4.07;;;2.50;;
10661;SDS011;5379;51.034;7.006;2024-03-25T00:14:06;6.37;;;2.77;;
10661;SDS011;5379;51.034;7.006;2024-03-25T00:16:33;10.90;;;3.00;;
10661;SDS011;5379;51.034;7.006;2024-03-25T00:19:00;5.17;;;2.73;;
10661;SDS011;5379;51.034;7.006;2024-03-25T00:21:26;6.37;;;2.63;;
10661;SDS011;5379;51.034;7.006;2024-03-25T00:23:52;8.33;;;2.87;;
10661;SDS011;5379;51.034;7.006;2024-03-25T00:26:21;6.03;;;3.03;;
10661;SDS011;5379;51.034;7.006;2024-03-25T00:28:47;13.07;;;3.03;;
10661;SDS011;5379;51.034;7.006;2024-03-25T00:31:15;11.07;;;3.03;;
10661;SDS011;5379;51.034;7.006;2024-03-25T00:33:41;5.30;;;2.90;;
10661;SDS011;5379;51.034;7.006;2024-03-25T00:36:08;11.20;;;2.50;;
10661;SDS011;5379;51.034;7.006;2024-03-25T00:38:35;4.87;;;2.63;;
10661;SDS011;5379;51.034;7.006;2024-03-25T00:41:01;8.20;;;2.27;;
10661;SDS011;5379;51.034;7.006;2024-03-25T00:43:27;10.40;;;3.60;;
10661;SDS011;5379;51.034;7.006;2024-03-25T00:45:54;6.83;;;2.70;;
10661;SDS011;5379;51.034;7.006;2024-03-25T00:48:22;7.90;;;3.20;;
10661;SDS011;5379;51.034;7.006;2024-03-25T00:50:49;5.87;;;2.50;;
10661;SDS011;5379;51.034;7.006;2024-03-25T00:53:15;5.20;;;3.03;;
10661;SDS011;5379;51.034;7.006;2024-03-25T00:55:43;6.53;;;2.87;;
10661;SDS011;5379;51.034;7.006;2024-03-25T00:58:08;9.47;;;3.07;;
10661;SDS011;5379;51.034;7.006;2024-03-25T05:32:55;9.00;;;4.20;;
10661;SDS011;5379;51.034;7.006;2024-03-25T05:35:21;8.50;;;4.13;;
10661;SDS011;5379;51.034;7.006;2024-03-25T05:37:47;12.13;;;3.37;;
10661;SDS011;5379;51.034;7.006;2024-03-25T05:40:13;5.70;;;3.70;;
10661;SDS011;5379;51.034;7.006;2024-03-25T05:42:40;10.13;;;4.10;;
10661;SDS011;5379;51.034;7.006;2024-03-25T05:45:06;12.50;;;3.63;;
10661;SDS011;5379;51.034;7.006;2024-03-25T05:47:32;12.03;;;3.67;;
10661;SDS011;5379;51.034;7.006;2024-03-25T05:49:59;8.40;;;3.80;;
10661;SDS011;5379;51.034;7.006;2024-03-25T05:52:28;10.17;;;4.27;;
10661;SDS011;5379;51.034;7.006;2024-03-25T05:54:54;9.73;;;4.40;;
10661;SDS011;5379;51.034;7.006;2024-03-25T05:57:19;7.33;;;3.80;;
10661;SDS011;5379;51.034;7.006;2024-03-25T05:59:45;6.43;;;3.70;;
10661;SDS011;5379;51.034;7.006;2024-03-25T06:02:12;10.07;;;4.57;;
10661;SDS011;5379;51.034;7.006;2024-03-25T06:04:37;10.57;;;3.53;;
10661;SDS011;5379;51.034;7.006;2024-03-25T06:07:05;7.43;;;3.63;;
10661;SDS011;5379;51.034;7.006;2024-03-25T06:09:30;11.67;;;4.23;;
10661;SDS011;5379;51.034;7.006;2024-03-25T06:11:56;14.07;;;4.27;;
10661;SDS011;5379;51.034;7.006;2024-03-25T06:14:22;16.03;;;4.33;;
10661;SDS011;5379;51.034;7.006;2024-03-25T06:16:48;5.03;;;3.90;;
10661;SDS011;5379;51.034;7.006;2024-03-25T06:19:14;9.47;;;3.50;;
10661;SDS011;5379;51.034;7.006;2024-03-25T06:21:40;18.37;;;3.83;;
10661;SDS011;5379;51.034;7.006;2024-03-25T06:24:07;5.10;;;3.50;;
10661;SDS011;5379;51.034;7.006;2024-03-25T06:26:33;9.67;;;3.40;;
10661;SDS011;5379;51.034;7.006;2024-03-25T06:28:59;6.20;;;3.90;;
10661;SDS011;5379;51.034;7.006;2024-03-25T06:31:25;8.87;;;3.97;;
10661;SDS011;5379;51.034;7.006;2024-03-25T06:34:09;11.57;;;4.47;;
10661;SDS011;5379;51.034;7.006;2024-03-25T06:36:42;6.93;;;3.97;;
10661;SDS011;5379;51.034;7.006;2024-03-25T06:39:10;17.30;;;4.73;;
10661;SDS011;5379;51.034;7.006;2024-03-25T06:41:35;11.37;;;4.23;;
10661;SDS011;5379;51.034;7.006;2024-03-25T06:44:02;8.07;;;4.17;;
10661;SDS011;5379;51.034;7.006;2024-03-25T06:46:27;8.63;;;4.17;;
10661;SDS011;5379;51.034;7.006;2024-03-25T06:48:53;13.87;;;4.30;;
10661;SDS011;5379;51.034;7.006;2024-03-25T06:51:19;8.40;;;3.77;;
10661;SDS011;5379;51.034;7.006;2024-03-25T06:53:45;10.10;;;3.57;;
10661;SDS011;5379;51.034;7.006;2024-03-25T06:56:12;4.83;;;3.53;;
10661;SDS011;5379;51.034;7.006;2024-03-25T06:58:38;8.97;;;4.43;;
10661;SDS011;5379;51.034;7.006;2024-03-25T07:01:04;8.33;;;4.43;;
10661;SDS011;5379;51.034;7.006;2024-03-25T07:03:31;7.67;;;4.63;;
10661;SDS011;5379;51.034;7.006;2024-03-25T07:05:57;4.40;;;3.17;;
10661;SDS011;5379;51.034;7.006;2024-03-25T07:08:23;7.03;;;3.60;;
10661;SDS011;5379;51.034;7.006;2024-03-25T07:10:48;8.40;;;4.00;;
10661;SDS011;5379;51.034;7.006;2024-03-25T07:13:16;6.53;;;3.77;;
10661;SDS011;5379;51.034;7.006;2024-03-25T07:15:42;5.83;;;3.40;;
10661;SDS011;5379;51.034;7.006;2024-03-25T07:18:08;10.90;;;3.03;;
10661;SDS011;5379;51.034;7.006;2024-03-25T07:20:34;9.03;;;3.20;;
10661;SDS011;5379;51.034;7.006;2024-03-25T07:23:00;10.13;;;3.67;;
10661;SDS011;5379;51.034;7.006;2024-03-25T07:25:26;12.47;;;3.87;;
10661;SDS011;5379;51.034;7.006;2024-03-25T07:27:52;5.13;;;3.40;;
10661;SDS011;5379;51.034;7.006;2024-03-25T07:30:25;5.53;;;4.07;;
10661;SDS011;5379;51.034;7.006;2024-03-25T07:32:52;6.50;;;3.27;;
10661;SDS011;5379;51.034;7.006;2024-03-25T07:35:18;10.03;;;3.93;;
10661;SDS011;5379;51.034;7.006;2024-03-25T07:37:44;14.23;;;4.20;;
10661;SDS011;5379;51.034;7.006;2024-03-25T07:40:10;7.93;;;3.93;;
10661;SDS011;5379;51.034;7.006;2024-03-25T07:42:37;8.80;;;3.97;;
10661;SDS011;5379;51.034;7.006;2024-03-25T07:45:03;4.33;;;3.13;;
10661;SDS011;5379;51.034;7.006;2024-03-25T07:47:31;12.10;;;3.60;;
10661;SDS011;5379;51.034;7.006;2024-03-25T07:49:57;6.67;;;3.23;;
10661;SDS011;5379;51.034;7.006;2024-03-25T07:52:24;10.33;;;3.97;;
10661;SDS011;5379;51.034;7.006;2024-03-25T07:54:50;6.77;;;3.83;;
10661;SDS011;5379;51.034;7.006;2024-03-25T07:57:16;7.43;;;3.77;;
10661;SDS011;5379;51.034;7.006;2024-03-25T07:59:42;18.50;;;4.50;;
10661;SDS011;5379;51.034;7.006;2024-03-25T08:02:07;9.73;;;4.53;;
10661;SDS011;5379;51.034;7.006;2024-03-25T08:04:35;11.87;;;4.00;;
10661;SDS011;5379;51.034;7.006;2024-03-25T08:07:00;9.13;;;5.67;;
10661;SDS011;5379;51.034;7.006;2024-03-25T08:09:27;9.00;;;3.93;;
10661;SDS011;5379;51.034;7.006;2024-03-25T08:11:53;4.60;;;3.07;;
10661;SDS011;5379;51.034;7.006;2024-03-25T08:14:19;6.53;;;3.97;;
10661;SDS011;5379;51.034;7.006;2024-03-25T08:16:45;3.30;;;3.00;;
10661;SDS011;5379;51.034;7.006;2024-03-25T08:19:11;10.27;;;3.50;;
10661;SDS011;5379;51.034;7.006;2024-03-25T08:21:38;7.70;;;3.70;;
10661;SDS011;5379;51.034;7.006;2024-03-25T08:24:05;6.70;;;3.77;;
10661;SDS011;5379;51.034;7.006;2024-03-25T08:26:31;6.37;;;3.30;;
10661;SDS011;5379;51.034;7.006;2024-03-25T08:28:57;5.17;;;3.43;;
10661;SDS011;5379;51.034;7.006;2024-03-25T08:31:23;10.17;;;2.90;;
10661;SDS011;5379;51.034;7.006;2024-03-25T08:33:49;5.10;;;2.77;;
10661;SDS011;5379;51.034;7.006;2024-03-25T08:36:15;5.93;;;2.90;;
10661;SDS011;5379;51.034;7.006;2024-03-25T08:38:42;4.50;;;3.00;;
10661;SDS011;5379;51.034;7.006;2024-03-25T08:41:08;4.20;;;2.80;;
10661;SDS011;5379;51.034;7.006;2024-03-25T08:43:34;13.93;;;3.27;;
10661;SDS011;5379;51.034;7.006;2024-03-25T08:46:00;8.20;;;2.80;;
10661;SDS011;5379;51.034;7.006;2024-03-25T08:48:28;7.60;;;2.83;;
10661;SDS011;5379;51.034;7.006;2024-03-25T08:50:58;9.33;;;3.40;;
10661;SDS011;5379;51.034;7.006;2024-03-25T08:53:25;3.77;;;2.37;;
10661;SDS011;5379;51.034;7.006;2024-03-25T08:55:57;7.10;;;3.23;;
10661;SDS011;5379;51.034;7.006;2024-03-25T08:58:23;4.37;;;2.33;;
10661;SDS011;5379;51.034;7.006;2024-03-25T09:00:49;1.97;;;1.83;;
10661;SDS011;5379;51.034;7.006;2024-03-25T09:03:15;5.90;;;2.80;;
10661;SDS011;5379;51.034;7.006;2024-03-25T09:05:41;4.20;;;2.70;;
10661;SDS011;5379;51.034;7.006;2024-03-25T09:08:07;7.27;;;3.20;;
10661;SDS011;5379;51.034;7.006;2024-03-25T09:10:34;6.27;;;2.73;;
10661;SDS011;5379;51.034;7.006;2024-03-25T09:13:22;7.33;;;2.50;;
10661;SDS011;5379;51.034;7.006;2024-03-25T09:15:49;2.83;;;2.40;;
10661;SDS011;5379;51.034;7.006;2024-03-25T09:18:15;7.83;;;3.00;;
10661;SDS011;5379;51.034;7.006;2024-03-25T09:20:42;4.60;;;2.23;;
10661;SDS011;5379;51.034;7.006;2024-03-25T09:23:08;4.07;;;2.47;;
10661;SDS011;5379;51.034;7.006;2024-03-25T09:25:34;5.57;;;2.13;;
10661;SDS011;5379;51.034;7.006;2024-03-25T09:28:00;8.63;;;2.43;;
10661;SDS011;5379;51.034;7.006;2024-03-25T09:30:28;4.37;;;2.13;;
10661;SDS011;5379;51.034;7.006;2024-03-25T09:32:54;9.67;;;1.70;;
10661;SDS011;5379;51.034;7.006;2024-03-25T09:35:20;6.07;;;2.60;;
10661;SDS011;5379;51.034;7.006;2024-03-25T09:37:52;3.17;;;2.10;;
10661;SDS011;5379;51.034;7.006;2024-03-25T09:40:18;3.10;;;2.27;;
10661;SDS011;5379;51.034;7.006;2024-03-25T09:42:46;2.00;;;1.90;;
10661;SDS011;5379;51.034;7.006;2024-03-25T09:45:13;7.03;;;1.70;;
10661;SDS011;5379;51.034;7.006;2024-03-25T09:47:43;3.13;;;2.13;;
10661;SDS011;5379;51.034;7.006;2024-03-25T09:50:12;9.30;;;2.23;;
10661;SDS011;5379;51.034;7.006;2024-03-25T09:52:38;5.33;;;2.13;;
10661;SDS011;5379;51.034;7.006;2024-03-25T09:55:05;9.43;;;2.33;;
10661;SDS011;5379;51.034;7.006;2024-03-25T09:57:32;3.20;;;2.07;;
10661;SDS011;5379;51.034;7.006;2024-03-25T09:59:59;3.47;;;1.93;;
10661;SDS011;5379;51.034;7.006;2024-03-25T10:02:25;4.40;;;2.40;;
10661;SDS011;5379;51.034;7.006;2024-03-25T10:04:56;2.10;;;1.90;;
10661;SDS011;5379;51.034;7.006;2024-03-25T10:07:22;13.63;;;3.17;;
10661;SDS011;5379;51.034;7.006;2024-03-25T10:09:49;6.03;;;2.33;;
10661;SDS011;5379;51.034;7.006;2024-03-25T10:12:15;2.27;;;2.00;;
10661;SDS011;5379;51.034;7.006;2024-03-25T10:14:41;9.33;;;2.27;;
10661;SDS011;5379;51.034;7.006;2024-03-25T10:17:08;5.30;;;2.20;;
10661;SDS011;5379;51.034;7.006;2024-03-25T10:19:34;4.73;;;2.50;;
10661;SDS011;5379;51.034;7.006;2024-03-25T10:22:03;3.20;;;1.67;;
10661;SDS011;5379;51.034;7.006;2024-03-25T10:24:37;3.70;;;2.43;;
10661;SDS011;5379;51.034;7.006;2024-03-25T10:27:03;2.43;;;2.13;;
10661;SDS011;5379;51.034;7.006;2024-03-25T10:29:30;2.93;;;2.13;;
10661;SDS011;5379;51.034;7.006;2024-03-25T10:31:59;2.43;;;1.87;;
10661;SDS011;5379;51.034;7.006;2024-03-25T10:34:25;3.47;;;2.17;;
10661;SDS011;5379;51.034;7.006;2024-03-25T10:36:51;5.07;;;1.97;;
10661;SDS011;5379;51.034;7.006;2024-03-25T10:39:24;8.67;;;2.30;;
10661;SDS011;5379;51.034;7.006;2024-03-25T10:41:52;4.63;;;2.30;;
10661;SDS011;5379;51.034;7.006;2024-03-25T10:44:21;2.60;;;1.83;;
10661;SDS011;5379;51.034;7.006;2024-03-25T10:46:48;5.37;;;1.97;;
10661;SDS011;5379;51.034;7.006;2024-03-25T10:49:20;4.17;;;2.50;;
10661;SDS011;5379;51.034;7.006;2024-03-25T10:51:50;2.20;;;2.00;;
10661;SDS011;5379;51.034;7.006;2024-03-25T10:54:17;4.13;;;2.03;;
10661;SDS011;5379;51.034;7.006;2024-03-25T10:56:46;2.40;;;1.93;;
10661;SDS011;5379;51.034;7.006;2024-03-25T10:59:14;4.83;;;1.80;;
10661;SDS011;5379;51.034;7.006;2024-03-25T11:01:40;4.83;;;2.20;;
10661;SDS011;5379;51.034;7.006;2024-03-25T11:04:06;3.23;;;2.00;;
10661;SDS011;5379;51.034;7.006;2024-03-25T11:06:32;2.67;;;1.80;;
10661;SDS011;5379;51.034;7.006;2024-03-25T11:08:59;1.80;;;1.00;;
10661;SDS011;5379;51.034;7.006;2024-03-25T11:11:30;2.57;;;1.57;;
10661;SDS011;5379;51.034;7.006;2024-03-25T11:13:57;2.17;;;1.70;;
10661;SDS011;5379;51.034;7.006;2024-03-25T11:16:28;3.50;;;1.60;;
10661;SDS011;5379;51.034;7.006;2024-03-25T11:22:08;3.07;;;2.10;;
10661;SDS011;5379;51.034;7.006;2024-03-25T11:24:48;2.30;;;1.80;;
10661;SDS011;5379;51.034;7.006;2024-03-25T11:27:14;2.40;;;1.60;;
10661;SDS011;5379;51.034;7.006;2024-03-25T11:29:42;2.57;;;1.57;;
10661;SDS011;5379;51.034;7.006;2024-03-25T11:32:08;4.33;;;1.30;;
10661;SDS011;5379;51.034;7.006;2024-03-25T11:34:37;3.07;;;1.67;;
10661;SDS011;5379;51.034;7.006;2024-03-25T11:37:03;3.67;;;1.80;;
10661;SDS011;5379;51.034;7.006;2024-03-25T11:39:30;1.40;;;1.30;;
10661;SDS011;5379;51.034;7.006;2024-03-25T11:41:55;1.40;;;1.30;;
10661;SDS011;5379;51.034;7.006;2024-03-25T11:44:22;2.10;;;1.40;;
10661;SDS011;5379;51.034;7.006;2024-03-25T11:46:49;1.57;;;1.47;;
10661;SDS011;5379;51.034;7.006;2024-03-25T11:49:16;5.40;;;1.63;;
10661;SDS011;5379;51.034;7.006;2024-03-25T11:51:42;2.00;;;1.47;;
10661;SDS011;5379;51.034;7.006;2024-03-25T11:54:09;2.13;;;1.70;;
10661;SDS011;5379;51.034;7.006;2024-03-25T11:56:36;1.30;;;1.20;;
10661;SDS011;5379;51.034;7.006;2024-03-25T11:59:02;6.07;;;1.37;;
10661;SDS011;5379;51.034;7.006;2024-03-25T12:01:28;1.43;;;1.33;;
10661;SDS011;5379;51.034;7.006;2024-03-25T12:03:56;1.17;;;1.07;;
10661;SDS011;5379;51.034;7.006;2024-03-25T12:06:22;1.63;;;1.37;;
10661;SDS011;5379;51.034;7.006;2024-03-25T12:08:48;2.73;;;1.40;;
10661;SDS011;5379;51.034;7.006;2024-03-25T12:11:29;2.47;;;1.57;;
10661;SDS011;5379;51.034;7.006;2024-03-25T12:13:55;3.80;;;1.03;;
10661;SDS011;5379;51.034;7.006;2024-03-25T12:16:22;1.50;;;1.30;;
10661;SDS011;5379;51.034;7.006;2024-03-25T12:18:52;1.40;;;1.27;;
10661;SDS011;5379;51.034;7.006;2024-03-25T12:21:19;2.00;;;1.30;;
10661;SDS011;5379;51.034;7.006;2024-03-25T12:23:46;6.40;;;1.50;;
10661;SDS011;5379;51.034;7.006;2024-03-25T12:26:13;4.27;;;1.70;;
10661;SDS011;5379;51.034;7.006;2024-03-25T12:28:39;3.93;;;1.50;;
10661;SDS011;5379;51.034;7.006;2024-03-25T12:31:07;3.07;;;1.40;;
10661;SDS011;5379;51.034;7.006;2024-03-25T12:33:39;2.37;;;1.30;;
10661;SDS011;5379;51.034;7.006;2024-03-25T12:36:06;7.37;;;1.73;;
10661;SDS011;5379;51.034;7.006;2024-03-25T12:38:33;3.37;;;1.80;;
10661;SDS011;5379;51.034;7.006;2024-03-25T12:41:03;3.77;;;1.43;;
10661;SDS011;5379;51.034;7.006;2024-03-25T12:43:31;3.03;;;1.70;;
10661;SDS011;5379;51.034;7.006;2024-03-25T12:45:57;3.33;;;1.80;;
10661;SDS011;5379;51.034;7.006;2024-03-25T12:48:23;3.83;;;1.43;;
10661;SDS011;5379;51.034;7.006;2024-03-25T12:50:50;7.27;;;1.77;;
10661;SDS011;5379;51.034;7.006;2024-03-25T12:53:17;1.47;;;1.10;;
10661;SDS011;5379;51.034;7.006;2024-03-25T12:55:45;7.27;;;1.60;;
10661;SDS011;5379;51.034;7.006;2024-03-25T12:58:11;1.67;;;1.57;;
10661;SDS011;5379;51.034;7.006;2024-03-25T13:00:38;1.97;;;1.50;;
10661;SDS011;5379;51.034;7.006;2024-03-25T13:03:04;2.50;;;1.30;;
10661;SDS011;5379;51.034;7.006;2024-03-25T13:05:31;1.53;;;1.10;;
10661;SDS011;5379;51.034;7.006;2024-03-25T13:07:57;1.13;;;1.13;;
10661;SDS011;5379;51.034;7.006;2024-03-25T13:10:23;2.13;;;1.47;;
10661;SDS011;5379;51.034;7.006;2024-03-25T13:12:51;1.70;;;1.33;;
10661;SDS011;5379;51.034;7.006;2024-03-25T13:15:17;1.27;;;1.17;;
10661;SDS011;5379;51.034;7.006;2024-03-25T13:17:44;2.20;;;1.30;;
10661;SDS011;5379;51.034;7.006;2024-03-25T13:20:10;1.83;;;1.37;;
10661;SDS011;5379;51.034;7.006;2024-03-25T13:22:36;1.33;;;1.10;;
10661;SDS011;5379;51.034;7.006;2024-03-25T13:25:03;3.27;;;1.50;;
10661;SDS011;5379;51.034;7.006;2024-03-25T13:27:29;1.00;;;1.00;;
10661;SDS011;5379;51.034;7.006;2024-03-25T13:29:57;1.23;;;1.13;;
10661;SDS011;5379;51.034;7.006;2024-03-25T13:32:23;1.83;;;1.33;;
10661;SDS011;5379;51.034;7.006;2024-03-25T13:34:49;1.57;;;1.23;;
10661;SDS011;5379;51.034;7.006;2024-03-25T13:37:15;1.10;;;1.10;;
10661;SDS011;5379;51.034;7.006;2024-03-25T13:39:41;4.80;;;1.13;;
10661;SDS011;5379;51.034;7.006;2024-03-25T13:42:07;1.07;;;0.97;;
10661;SDS011;5379;51.034;7.006;2024-03-25T13:44:33;0.90;;;0.90;;
10661;SDS011;5379;51.034;7.006;2024-03-25T13:47:01;1.40;;;1.10;;
10661;SDS011;5379;51.034;7.006;2024-03-25T13:49:27;1.03;;;1.03;;
10661;SDS011;5379;51.034;7.006;2024-03-25T13:51:55;1.40;;;1.30;;
10661;SDS011;5379;51.034;7.006;2024-03-25T13:54:22;1.10;;;1.03;;
10661;SDS011;5379;51.034;7.006;2024-03-25T13:56:48;2.33;;;1.27;;
10661;SDS011;5379;51.034;7.006;2024-03-25T13:59:16;2.07;;;1.20;;
10661;SDS011;5379;51.034;7.006;2024-03-25T14:01:42;1.47;;;1.37;;
10661;SDS011;5379;51.034;7.006;2024-03-25T14:04:10;2.43;;;1.30;;
10661;SDS011;5379;51.034;7.006;2024-03-25T14:06:40;0.97;;;0.93;;
10661;SDS011;5379;51.034;7.006;2024-03-25T14:09:06;2.83;;;1.70;;
10661;SDS011;5379;51.034;7.006;2024-03-25T14:11:33;1.03;;;0.93;;
10661;SDS011;5379;51.034;7.006;2024-03-25T14:13:59;1.00;;;1.00;;
10661;SDS011;5379;51.034;7.006;2024-03-25T14:16:25;1.30;;;1.20;;
10661;SDS011;5379;51.034;7.006;2024-03-25T14:18:51;1.23;;;1.13;;
10661;SDS011;5379;51.034;7.006;2024-03-25T14:21:19;1.50;;;1.00;;
10661;SDS011;5379;51.034;7.006;2024-03-25T14:23:45;1.43;;;0.80;;
10661;SDS011;5379;51.034;7.006;2024-03-25T14:26:11;0.90;;;0.90;;
10661;SDS011;5379;51.034;7.006;2024-03-25T14:28:38;1.10;;;1.10;;
10661;SDS011;5379;51.034;7.006;2024-03-25T14:31:05;0.37;;;0.37;;
10661;SDS011;5379;51.034;7.006;2024-03-25T14:33:31;5.93;;;1.03;;
10661;SDS011;5379;51.034;7.006;2024-03-25T14:36:01;1.70;;;1.53;;
10661;SDS011;5379;51.034;7.006;2024-03-25T14:38:29;2.03;;;1.13;;
10661;SDS011;5379;51.034;7.006;2024-03-25T14:40:55;0.63;;;0.63;;
10661;SDS011;5379;51.034;7.006;2024-03-25T14:43:21;1.23;;;0.77;;
10661;SDS011;5379;51.034;7.006;2024-03-25T14:45:47;6.60;;;0.93;;
10661;SDS011;5379;51.034;7.006;2024-03-25T14:48:14;0.87;;;0.80;;
10661;SDS011;5379;51.034;7.006;2024-03-25T14:50:39;1.90;;;0.90;;
10661;SDS011;5379;51.034;7.006;2024-03-25T14:53:06;1.73;;;0.90;;
10661;SDS011;5379;51.034;7.006;2024-03-25T14:55:33;2.07;;;0.93;;
10661;SDS011;5379;51.034;7.006;2024-03-25T14:57:59;0.90;;;0.90;;
10661;SDS011;5379;51.034;7.006;2024-03-25T15:00:24;1.33;;;0.97;;
10661;SDS011;5379;51.034;7.006;2024-03-25T15:02:53;1.50;;;0.93;;
10661;SDS011;5379;51.034;7.006;2024-03-25T15:05:19;0.50;;;0.50;;
10661;SDS011;5379;51.034;7.006;2024-03-25T15:07:45;1.03;;;0.50;;
10661;SDS011;5379;51.034;7.006;2024-03-25T15:10:11;1.67;;;1.13;;
10661;SDS011;5379;51.034;7.006;2024-03-25T15:12:38;0.97;;;0.97;;
10661;SDS011;5379;51.034;7.006;2024-03-25T15:15:05;0.80;;;0.70;;
10661;SDS011;5379;51.034;7.006;2024-03-25T15:17:31;1.63;;;1.10;;
10661;SDS011;5379;51.034;7.006;2024-03-25T15:19:57;1.40;;;1.30;;
10661;SDS011;5379;51.034;7.006;2024-03-25T15:22:23;6.13;;;0.97;;
10661;SDS011;5379;51.034;7.006;2024-03-25T15:24:49;1.10;;;0.70;;
10661;SDS011;5379;51.034;7.006;2024-03-25T15:27:15;0.63;;;0.63;;
10661;SDS011;5379;51.034;7.006;2024-03-25T15:29:42;0.80;;;0.80;;
10661;SDS011;5379;51.034;7.006;2024-03-25T15:32:08;1.00;;;0.90;;
10661;SDS011;5379;51.034;7.006;2024-03-25T15:34:34;1.17;;;1.00;;
10661;SDS011;5379;51.034;7.006;2024-03-25T15:37:00;2.17;;;1.00;;
10661;SDS011;5379;51.034;7.006;2024-03-25T15:39:26;1.00;;;0.73;;
10661;SDS011;5379;51.034;7.006;2024-03-25T15:41:52;1.30;;;1.17;;
10661;SDS011;5379;51.034;7.006;2024-03-25T15:44:18;1.00;;;0.90;;
10661;SDS011;5379;51.034;7.006;2024-03-25T15:46:45;3.10;;;0.90;;
10661;SDS011;5379;51.034;7.006;2024-03-25T15:49:11;1.37;;;0.87;;
10661;SDS011;5379;51.034;7.006;2024-03-25T15:51:37;0.70;;;0.70;;
10661;SDS011;5379;51.034;7.006;2024-03-25T15:54:03;0.70;;;0.70;;
10661;SDS011;5379;51.034;7.006;2024-03-25T15:56:29;5.17;;;0.90;;
10661;SDS011;5379;51.034;7.006;2024-03-25T15:58:55;2.00;;;1.40;;
10661;SDS011;5379;51.034;7.006;2024-03-25T16:01:20;0.80;;;0.80;;
10661;SDS011;5379;51.034;7.006;2024-03-25T16:03:48;0.70;;;0.70;;
10661;SDS011;5379;51.034;7.006;2024-03-25T16:06:14;1.97;;;0.77;;
10661;SDS011;5379;51.034;7.006;2024-03-25T16:08:40;1.00;;;1.00;;
10661;SDS011;5379;51.034;7.006;2024-03-25T16:11:06;0.60;;;0.60;;
10661;SDS011;5379;51.034;7.006;2024-03-25T16:13:32;0.93;;;0.87;;
10661;SDS011;5379;51.034;7.006;2024-03-25T16:16:01;1.07;;;0.37;;
10661;SDS011;5379;51.034;7.006;2024-03-25T16:18:28;1.40;;;1.17;;
10661;SDS011;5379;51.034;7.006;2024-03-25T16:20:55;0.83;;;0.70;;
10661;SDS011;5379;51.034;7.006;2024-03-25T16:23:21;5.57;;;1.23;;
10661;SDS011;5379;51.034;7.006;2024-03-25T16:25:47;0.57;;;0.57;;
10661;SDS011;5379;51.034;7.006;2024-03-25T16:28:13;1.63;;;0.90;;
10661;SDS011;5379;51.034;7.006;2024-03-25T16:30:39;0.37;;;0.37;;
10661;SDS011;5379;51.034;7.006;2024-03-25T16:33:05;2.13;;;0.80;;
10661;SDS011;5379;51.034;7.006;2024-03-25T16:35:31;1.07;;;1.07;;
10661;SDS011;5379;51.034;7.006;2024-03-25T16:37:59;2.17;;;0.80;;
10661;SDS011;5379;51.034;7.006;2024-03-25T16:40:25;1.17;;;0.67;;
10661;SDS011;5379;51.034;7.006;2024-03-25T16:42:51;1.07;;;0.77;;
10661;SDS011;5379;51.034;7.006;2024-03-25T16:45:17;1.67;;;1.10;;
10661;SDS011;5379;51.034;7.006;2024-03-25T16:47:43;1.07;;;1.03;;
10661;SDS011;5379;51.034;7.006;2024-03-25T16:50:12;2.63;;;0.90;;
10661;SDS011;5379;51.034;7.006;2024-03-25T16:52:38;1.33;;;1.07;;
10661;SDS011;5379;51.034;7.006;2024-03-25T16:55:05;0.93;;;0.67;;
10661;SDS011;5379;51.034;7.006;2024-03-25T16:57:31;1.10;;;1.10;;
10661;SDS011;5379;51.034;7.006;2024-03-25T16:59:58;1.37;;;0.90;;
10661;SDS011;5379;51.034;7.006;2024-03-25T17:02:24;0.97;;;0.97;;
10661;SDS011;5379;51.034;7.006;2024-03-25T17:04:50;1.33;;;1.27;;
10661;SDS011;5379;51.034;7.006;2024-03-25T17:10:16;0.67;;;0.67;;
10661;SDS011;5379;51.034;7.006;2024-03-25T17:12:43;1.80;;;1.03;;
10661;SDS011;5379;51.034;7.006;2024-03-25T17:15:09;3.20;;;1.23;;
10661;SDS011;5379;51.034;7.006;2024-03-25T17:17:35;1.93;;;0.90;;
10661;SDS011;5379;51.034;7.006;2024-03-25T17:20:01;2.67;;;1.00;;
10661;SDS011;5379;51.034;7.006;2024-03-25T17:22:28;1.17;;;1.00;;
10661;SDS011;5379;51.034;7.006;2024-03-25T17:24:54;0.90;;;0.90;;
10661;SDS011;5379;51.034;7.006;2024-03-25T17:27:25;0.97;;;0.87;;
10661;SDS011;5379;51.034;7.006;2024-03-25T17:30:00;2.57;;;1.57;;
10661;SDS011;5379;51.034;7.006;2024-03-25T17:32:27;3.93;;;1.00;;
10661;SDS011;5379;51.034;7.006;2024-03-25T17:34:56;1.83;;;1.10;;
10661;SDS011;5379;51.034;7.006;2024-03-25T17:37:27;2.83;;;1.60;;
10661;SDS011;5379;51.034;7.006;2024-03-25T17:39:56;0.70;;;0.70;;
10661;SDS011;5379;51.034;7.006;2024-03-25T17:42:25;1.63;;;1.20;;
10661;SDS011;5379;51.034;7.006;2024-03-25T17:44:52;0.80;;;0.80;;
10661;SDS011;5379;51.034;7.006;2024-03-25T17:47:21;0.83;;;0.83;;
10661;SDS011;5379;51.034;7.006;2024-03-25T17:49:47;1.10;;;1.10;;
10661;SDS011;5379;51.034;7.006;2024-03-25T17:52:13;1.27;;;1.17;;
10661;SDS011;5379;51.034;7.006;2024-03-25T17:54:42;0.70;;;0.63;;
10661;SDS011;5379;51.034;7.006;2024-03-25T17:57:08;0.60;;;0.57;;
10661;SDS011;5379;51.034;7.006;2024-03-25T17:59:36;2.93;;;0.93;;
10661;SDS011;5379;51.034;7.006;2024-03-25T18:02:02;1.10;;;1.00;;
10661;SDS011;5379;51.034;7.006;2024-03-25T18:04:28;1.20;;;1.10;;
10661;SDS011;5379;51.034;7.006;2024-03-25T18:06:54;2.47;;;1.13;;
10661;SDS011;5379;51.034;7.006;2024-03-25T18:09:20;2.00;;;1.10;;
10661;SDS011;5379;51.034;7.006;2024-03-25T18:11:46;1.10;;;0.90;;
10661;SDS011;5379;51.034;7.006;2024-03-25T18:14:11;4.77;;;1.17;;
10661;SDS011;5379;51.034;7.006;2024-03-25T18:16:39;3.40;;;1.00;;
10661;SDS011;5379;51.034;7.006;2024-03-25T18:19:14;1.80;;;0.60;;
10661;SDS011;5379;51.034;7.006;2024-03-25T18:23:53;7.37;;;0.80;;
10661;SDS011;5379;51.034;7.006;2024-03-25T18:24:33;3.97;;;0.97;;
10661;SDS011;5379;51.034;7.006;2024-03-25T18:27:00;1.23;;;1.13;;
10661;SDS011;5379;51.034;7.006;2024-03-25T18:29:30;0.80;;;0.80;;
10661;SDS011;5379;51.034;7.006;2024-03-25T18:32:04;1.87;;;1.10;;
10661;SDS011;5379;51.034;7.006;2024-03-25T18:34:31;1.13;;;1.00;;
10661;SDS011;5379;51.034;7.006;2024-03-25T18:36:58;0.53;;;0.53;;
10661;SDS011;5379;51.034;7.006;2024-03-25T18:39:24;0.90;;;0.90;;
10661;SDS011;5379;51.034;7.006;2024-03-25T18:41:51;4.63;;;1.23;;
10661;SDS011;5379;51.034;7.006;2024-03-25T18:44:17;0.70;;;0.60;;
10661;SDS011;5379;51.034;7.006;2024-03-25T18:46:48;1.20;;;1.00;;
10661;SDS011;5379;51.034;7.006;2024-03-25T18:49:15;0.63;;;0.63;;
10661;SDS011;5379;51.034;7.006;2024-03-25T18:51:42;2.07;;;0.90;;
10661;SDS011;5379;51.034;7.006;2024-03-25T18:54:13;2.27;;;1.50;;
10661;SDS011;5379;51.034;7.006;2024-03-25T18:56:39;1.30;;;1.03;;
10661;SDS011;5379;51.034;7.006;2024-03-25T18:59:07;5.43;;;1.40;;
10661;SDS011;5379;51.034;7.006;2024-03-25T19:01:39;1.20;;;1.10;;
10661;SDS011;5379;51.034;7.006;2024-03-25T19:04:05;1.77;;;1.13;;
10661;SDS011;5379;51.034;7.006;2024-03-25T19:06:33;0.97;;;0.77;;
10661;SDS011;5379;51.034;7.006;2024-03-25T19:08:59;1.17;;;1.00;;
10661;SDS011;5379;51.034;7.006;2024-03-25T19:11:25;3.13;;;1.30;;
10661;SDS011;5379;51.034;7.006;2024-03-25T19:13:52;1.57;;;1.40;;
10661;SDS011;5379;51.034;7.006;2024-03-25T19:16:18;1.23;;;1.03;;
10661;SDS011;5379;51.034;7.006;2024-03-25T19:18:44;2.80;;;1.43;;
10661;SDS011;5379;51.034;7.006;2024-03-25T19:21:10;0.80;;;0.80;;
10661;SDS011;5379;51.034;7.006;2024-03-25T19:23:38;0.83;;;0.83;;
10661;SDS011;5379;51.034;7.006;2024-03-25T19:26:04;2.43;;;0.80;;
10661;SDS011;5379;51.034;7.006;2024-03-25T19:28:30;0.93;;;0.93;;
10661;SDS011;5379;51.034;7.006;2024-03-25T19:30:56;1.00;;;0.90;;
10661;SDS011;5379;51.034;7.006;2024-03-25T19:33:22;0.90;;;0.90;;
10661;SDS011;5379;51.034;7.006;2024-03-25T19:35:49;0.70;;;0.70;;
10661;SDS011;5379;51.034;7.006;2024-03-25T19:38:15;1.20;;;1.03;;